sensor_id;sensor_type;location;lat;lon;timestamp;temperature;humidity
57108;DHT22;42987;52.916;6.542;2023-08-17T00:01:55;15.70;99.90
57108;DHT22;42987;52.916;6.542;2023-08-17T00:04:21;15.70;99.90
57108;DHT22;42987;52.916;6.542;2023-08-17T00:06:47;15.70;99.90
57108;DHT22;42987;52.916;6.542;2023-08-17T00:09:13;15.70;99.90
57108;DHT22;42987;52.916;6.542;2023-08-17T00:11:39;15.70;99.90
57108;DHT22;42987;52.916;6.542;2023-08-17T00:14:05;15.70;99.90
57108;DHT22;42987;52.916;6.542;2023-08-17T00:16:31;15.70;99.90
57108;DHT22;42987;52.916;6.542;2023-08-17T00:18:57;15.70;99.90
57108;DHT22;42987;52.916;6.542;2023-08-17T00:21:23;15.70;99.90
57108;DHT22;42987;52.916;6.542;2023-08-17T00:23:49;15.80;99.90
57108;DHT22;42987;52.916;6.542;2023-08-17T00:26:16;15.70;99.90
57108;DHT22;42987;52.916;6.542;2023-08-17T00:28:41;15.70;99.90
57108;DHT22;42987;52.916;6.542;2023-08-17T00:31:10;15.70;99.90
57108;DHT22;42987;52.916;6.542;2023-08-17T00:33:36;15.70;99.90
57108;DHT22;42987;52.916;6.542;2023-08-17T00:36:05;15.70;99.90
57108;DHT22;42987;52.916;6.542;2023-08-17T00:38:30;15.70;99.90
57108;DHT22;42987;52.916;6.542;2023-08-17T00:40:56;15.70;99.90
57108;DHT22;42987;52.916;6.542;2023-08-17T00:43:22;15.70;99.90
57108;DHT22;42987;52.916;6.542;2023-08-17T00:45:48;15.70;99.90
57108;DHT22;42987;52.916;6.542;2023-08-17T00:48:14;15.70;99.90
57108;DHT22;42987;52.916;6.542;2023-08-17T00:50:40;15.70;99.90
57108;DHT22;42987;52.916;6.542;2023-08-17T00:53:06;15.70;99.90
57108;DHT22;42987;52.916;6.542;2023-08-17T00:55:38;15.70;99.90
57108;DHT22;42987;52.916;6.542;2023-08-17T00:58:04;15.60;99.90
57108;DHT22;42987;52.916;6.542;2023-08-17T01:00:31;15.60;99.90
57108;DHT22;42987;52.916;6.542;2023-08-17T01:02:58;15.60;99.90
57108;DHT22;42987;52.916;6.542;2023-08-17T01:05:23;15.60;99.90
57108;DHT22;42987;52.916;6.542;2023-08-17T01:07:49;15.60;99.90
57108;DHT22;42987;52.916;6.542;2023-08-17T01:10:16;15.60;99.90
57108;DHT22;42987;52.916;6.542;2023-08-17T01:13:09;15.60;99.90
57108;DHT22;42987;52.916;6.542;2023-08-17T01:15:42;15.60;99.90
57108;DHT22;42987;52.916;6.542;2023-08-17T01:18:23;15.50;99.90
57108;DHT22;42987;52.916;6.542;2023-08-17T01:20:53;15.50;99.90
57108;DHT22;42987;52.916;6.542;2023-08-17T01:23:19;15.50;99.90
57108;DHT22;42987;52.916;6.542;2023-08-17T01:25:45;15.50;99.90
57108;DHT22;42987;52.916;6.542;2023-08-17T01:28:11;15.50;99.90
57108;DHT22;42987;52.916;6.542;2023-08-17T01:30:45;15.50;99.90
57108;DHT22;42987;52.916;6.542;2023-08-17T01:33:16;15.40;99.90
57108;DHT22;42987;52.916;6.542;2023-08-17T01:35:58;15.40;99.90
57108;DHT22;42987;52.916;6.542;2023-08-17T01:38:27;15.40;99.90
57108;DHT22;42987;52.916;6.542;2023-08-17T01:40:55;15.40;99.90
57108;DHT22;42987;52.916;6.542;2023-08-17T01:43:22;15.30;99.90
57108;DHT22;42987;52.916;6.542;2023-08-17T01:45:48;15.30;99.90
57108;DHT22;42987;52.916;6.542;2023-08-17T01:48:14;15.30;99.90
57108;DHT22;42987;52.916;6.542;2023-08-17T01:50:40;15.30;99.90
57108;DHT22;42987;52.916;6.542;2023-08-17T01:53:05;15.30;99.90
57108;DHT22;42987;52.916;6.542;2023-08-17T01:55:31;15.30;99.90
57108;DHT22;42987;52.916;6.542;2023-08-17T01:57:57;15.30;99.90
57108;DHT22;42987;52.916;6.542;2023-08-17T02:00:23;15.30;99.90
57108;DHT22;42987;52.916;6.542;2023-08-17T02:02:48;15.20;99.90
57108;DHT22;42987;52.916;6.542;2023-08-17T02:05:14;15.20;99.90
57108;DHT22;42987;52.916;6.542;2023-08-17T02:07:40;15.20;99.90
57108;DHT22;42987;52.916;6.542;2023-08-17T02:10:06;15.20;99.90
57108;DHT22;42987;52.916;6.542;2023-08-17T02:12:32;15.20;99.90
57108;DHT22;42987;52.916;6.542;2023-08-17T02:14:58;15.20;99.90
57108;DHT22;42987;52.916;6.542;2023-08-17T02:17:23;15.20;99.90
57108;DHT22;42987;52.916;6.542;2023-08-17T02:19:49;15.20;99.90
57108;DHT22;42987;52.916;6.542;2023-08-17T02:22:15;15.20;99.90
57108;DHT22;42987;52.916;6.542;2023-08-17T02:24:44;15.10;99.90
57108;DHT22;42987;52.916;6.542;2023-08-17T02:27:11;15.10;99.90
57108;DHT22;42987;52.916;6.542;2023-08-17T02:29:36;15.10;99.90
57108;DHT22;42987;52.916;6.542;2023-08-17T02:32:02;15.10;99.90
57108;DHT22;42987;52.916;6.542;2023-08-17T02:34:28;15.10;99.90
57108;DHT22;42987;52.916;6.542;2023-08-17T02:36:54;15.10;99.90
57108;DHT22;42987;52.916;6.542;2023-08-17T02:39:20;15.10;99.90
57108;DHT22;42987;52.916;6.542;2023-08-17T02:41:46;15.10;99.90
57108;DHT22;42987;52.916;6.542;2023-08-17T02:44:14;15.10;99.90
57108;DHT22;42987;52.916;6.542;2023-08-17T02:46:40;15.10;99.90
57108;DHT22;42987;52.916;6.542;2023-08-17T02:49:06;15.10;99.90
57108;DHT22;42987;52.916;6.542;2023-08-17T02:51:34;15.10;99.90
57108;DHT22;42987;52.916;6.542;2023-08-17T02:54:00;15.10;99.90
57108;DHT22;42987;52.916;6.542;2023-08-17T02:56:25;15.10;99.90
57108;DHT22;42987;52.916;6.542;2023-08-17T02:58:52;15.10;99.90
57108;DHT22;42987;52.916;6.542;2023-08-17T03:01:18;15.10;99.90
57108;DHT22;42987;52.916;6.542;2023-08-17T03:03:43;15.10;99.90
57108;DHT22;42987;52.916;6.542;2023-08-17T03:06:09;15.10;99.90
57108;DHT22;42987;52.916;6.542;2023-08-17T03:08:35;15.10;99.90
57108;DHT22;42987;52.916;6.542;2023-08-17T03:11:01;15.10;99.90
57108;DHT22;42987;52.916;6.542;2023-08-17T03:13:26;15.00;99.90
57108;DHT22;42987;52.916;6.542;2023-08-17T03:15:53;15.10;99.90
57108;DHT22;42987;52.916;6.542;2023-08-17T03:18:19;15.00;99.90
57108;DHT22;42987;52.916;6.542;2023-08-17T03:20:45;15.10;99.90
57108;DHT22;42987;52.916;6.542;2023-08-17T03:23:11;15.00;99.90
57108;DHT22;42987;52.916;6.542;2023-08-17T03:25:37;15.10;99.90
57108;DHT22;42987;52.916;6.542;2023-08-17T03:28:03;15.00;99.90
57108;DHT22;42987;52.916;6.542;2023-08-17T03:30:29;15.10;99.90
57108;DHT22;42987;52.916;6.542;2023-08-17T03:32:55;15.00;99.90
57108;DHT22;42987;52.916;6.542;2023-08-17T03:35:21;15.00;99.90
57108;DHT22;42987;52.916;6.542;2023-08-17T03:37:46;15.00;99.90
57108;DHT22;42987;52.916;6.542;2023-08-17T03:40:12;15.00;99.90
57108;DHT22;42987;52.916;6.542;2023-08-17T03:42:38;15.00;99.90
57108;DHT22;42987;52.916;6.542;2023-08-17T03:45:04;15.00;99.90
57108;DHT22;42987;52.916;6.542;2023-08-17T03:47:30;15.00;99.90
57108;DHT22;42987;52.916;6.542;2023-08-17T03:49:56;15.00;99.90
57108;DHT22;42987;52.916;6.542;2023-08-17T03:52:22;15.00;99.90
57108;DHT22;42987;52.916;6.542;2023-08-17T03:54:47;15.00;99.90
57108;DHT22;42987;52.916;6.542;2023-08-17T03:57:13;15.00;99.90
57108;DHT22;42987;52.916;6.542;2023-08-17T03:59:40;15.00;99.90
57108;DHT22;42987;52.916;6.542;2023-08-17T04:02:06;15.00;99.90
57108;DHT22;42987;52.916;6.542;2023-08-17T04:04:32;15.00;99.90
57108;DHT22;42987;52.916;6.542;2023-08-17T04:06:58;15.00;99.90
57108;DHT22;42987;52.916;6.542;2023-08-17T04:09:25;15.00;99.90
57108;DHT22;42987;52.916;6.542;2023-08-17T04:11:51;15.10;99.90
57108;DHT22;42987;52.916;6.542;2023-08-17T04:14:17;15.10;99.90
57108;DHT22;42987;52.916;6.542;2023-08-17T04:16:42;15.10;99.90
57108;DHT22;42987;52.916;6.542;2023-08-17T04:19:08;15.20;99.90
57108;DHT22;42987;52.916;6.542;2023-08-17T04:21:34;15.20;99.90
57108;DHT22;42987;52.916;6.542;2023-08-17T04:24:00;15.20;99.90
57108;DHT22;42987;52.916;6.542;2023-08-17T04:26:25;15.20;99.90
57108;DHT22;42987;52.916;6.542;2023-08-17T04:28:51;15.30;99.90
57108;DHT22;42987;52.916;6.542;2023-08-17T04:31:17;15.30;99.90
57108;DHT22;42987;52.916;6.542;2023-08-17T04:33:42;15.30;99.90
57108;DHT22;42987;52.916;6.542;2023-08-17T04:36:08;15.30;99.90
57108;DHT22;42987;52.916;6.542;2023-08-17T04:38:34;15.30;99.90
57108;DHT22;42987;52.916;6.542;2023-08-17T04:41:00;15.40;99.90
57108;DHT22;42987;52.916;6.542;2023-08-17T04:43:25;15.40;99.90
57108;DHT22;42987;52.916;6.542;2023-08-17T04:45:51;15.40;99.90
57108;DHT22;42987;52.916;6.542;2023-08-17T04:48:17;15.50;99.90
57108;DHT22;42987;52.916;6.542;2023-08-17T04:50:43;15.50;99.90
57108;DHT22;42987;52.916;6.542;2023-08-17T04:53:09;15.50;99.90
57108;DHT22;42987;52.916;6.542;2023-08-17T04:55:34;15.50;99.90
57108;DHT22;42987;52.916;6.542;2023-08-17T04:58:00;15.50;99.90
57108;DHT22;42987;52.916;6.542;2023-08-17T05:00:26;15.60;99.90
57108;DHT22;42987;52.916;6.542;2023-08-17T05:02:55;15.60;99.90
57108;DHT22;42987;52.916;6.542;2023-08-17T05:05:21;15.60;99.90
57108;DHT22;42987;52.916;6.542;2023-08-17T05:07:47;15.60;99.90
57108;DHT22;42987;52.916;6.542;2023-08-17T05:10:13;15.60;99.90
57108;DHT22;42987;52.916;6.542;2023-08-17T05:12:39;15.60;99.90
57108;DHT22;42987;52.916;6.542;2023-08-17T05:15:05;15.70;99.90
57108;DHT22;42987;52.916;6.542;2023-08-17T05:17:30;15.60;99.90
57108;DHT22;42987;52.916;6.542;2023-08-17T05:19:56;15.60;99.90
57108;DHT22;42987;52.916;6.542;2023-08-17T05:22:22;15.70;99.90
57108;DHT22;42987;52.916;6.542;2023-08-17T05:24:48;15.70;99.90
57108;DHT22;42987;52.916;6.542;2023-08-17T05:27:13;15.60;99.90
57108;DHT22;42987;52.916;6.542;2023-08-17T05:29:39;15.70;99.90
57108;DHT22;42987;52.916;6.542;2023-08-17T05:32:05;15.70;99.90
57108;DHT22;42987;52.916;6.542;2023-08-17T05:34:31;15.70;99.90
57108;DHT22;42987;52.916;6.542;2023-08-17T05:36:57;15.60;99.90
57108;DHT22;42987;52.916;6.542;2023-08-17T05:39:22;15.70;99.90
57108;DHT22;42987;52.916;6.542;2023-08-17T05:41:48;15.70;99.90
57108;DHT22;42987;52.916;6.542;2023-08-17T05:44:14;15.70;99.90
57108;DHT22;42987;52.916;6.542;2023-08-17T05:46:40;15.70;99.90
57108;DHT22;42987;52.916;6.542;2023-08-17T05:49:06;15.70;99.90
57108;DHT22;42987;52.916;6.542;2023-08-17T05:51:32;15.80;99.90
57108;DHT22;42987;52.916;6.542;2023-08-17T05:53:58;15.80;99.90
57108;DHT22;42987;52.916;6.542;2023-08-17T05:56:23;15.80;99.90
57108;DHT22;42987;52.916;6.542;2023-08-17T05:58:49;15.90;99.90
57108;DHT22;42987;52.916;6.542;2023-08-17T06:01:15;15.90;99.90
57108;DHT22;42987;52.916;6.542;2023-08-17T06:03:41;15.90;99.90
57108;DHT22;42987;52.916;6.542;2023-08-17T06:06:09;15.90;99.90
57108;DHT22;42987;52.916;6.542;2023-08-17T06:08:35;15.90;99.90
57108;DHT22;42987;52.916;6.542;2023-08-17T06:11:01;16.00;99.90
57108;DHT22;42987;52.916;6.542;2023-08-17T06:13:27;16.00;99.90
57108;DHT22;42987;52.916;6.542;2023-08-17T06:15:53;16.00;99.90
57108;DHT22;42987;52.916;6.542;2023-08-17T06:18:18;16.00;99.90
57108;DHT22;42987;52.916;6.542;2023-08-17T06:20:46;15.90;99.90
57108;DHT22;42987;52.916;6.542;2023-08-17T06:23:12;15.90;99.90
57108;DHT22;42987;52.916;6.542;2023-08-17T06:25:38;16.00;99.90
57108;DHT22;42987;52.916;6.542;2023-08-17T06:28:05;15.90;99.90
57108;DHT22;42987;52.916;6.542;2023-08-17T06:30:31;15.90;99.90
57108;DHT22;42987;52.916;6.542;2023-08-17T06:32:57;16.00;99.90
57108;DHT22;42987;52.916;6.542;2023-08-17T06:35:26;16.00;99.90
57108;DHT22;42987;52.916;6.542;2023-08-17T06:37:51;16.00;99.90
57108;DHT22;42987;52.916;6.542;2023-08-17T06:40:21;16.00;99.90
57108;DHT22;42987;52.916;6.542;2023-08-17T06:42:47;16.10;99.90
57108;DHT22;42987;52.916;6.542;2023-08-17T06:45:12;16.10;99.90
57108;DHT22;42987;52.916;6.542;2023-08-17T06:47:38;16.10;99.90
57108;DHT22;42987;52.916;6.542;2023-08-17T06:50:04;16.20;99.90
57108;DHT22;42987;52.916;6.542;2023-08-17T06:52:30;16.30;99.90
57108;DHT22;42987;52.916;6.542;2023-08-17T06:54:56;16.30;99.90
57108;DHT22;42987;52.916;6.542;2023-08-17T06:57:22;16.40;99.90
57108;DHT22;42987;52.916;6.542;2023-08-17T06:59:48;16.40;99.90
57108;DHT22;42987;52.916;6.542;2023-08-17T07:02:14;16.50;99.90
57108;DHT22;42987;52.916;6.542;2023-08-17T07:04:39;16.50;99.90
57108;DHT22;42987;52.916;6.542;2023-08-17T07:07:05;16.60;99.90
57108;DHT22;42987;52.916;6.542;2023-08-17T07:09:31;16.60;99.90
57108;DHT22;42987;52.916;6.542;2023-08-17T07:11:57;16.60;99.90
57108;DHT22;42987;52.916;6.542;2023-08-17T07:14:22;16.70;99.90
57108;DHT22;42987;52.916;6.542;2023-08-17T07:16:48;16.70;99.90
57108;DHT22;42987;52.916;6.542;2023-08-17T07:19:14;16.70;99.90
57108;DHT22;42987;52.916;6.542;2023-08-17T07:21:40;16.70;99.90
57108;DHT22;42987;52.916;6.542;2023-08-17T07:24:13;16.70;99.90
57108;DHT22;42987;52.916;6.542;2023-08-17T07:26:39;16.80;99.90
57108;DHT22;42987;52.916;6.542;2023-08-17T07:29:05;16.80;99.90
57108;DHT22;42987;52.916;6.542;2023-08-17T07:31:31;16.90;99.90
57108;DHT22;42987;52.916;6.542;2023-08-17T07:33:59;17.00;99.90
57108;DHT22;42987;52.916;6.542;2023-08-17T07:36:25;17.10;99.90
57108;DHT22;42987;52.916;6.542;2023-08-17T07:38:51;17.10;99.90
57108;DHT22;42987;52.916;6.542;2023-08-17T07:41:17;17.20;99.90
57108;DHT22;42987;52.916;6.542;2023-08-17T07:43:42;17.20;99.90
57108;DHT22;42987;52.916;6.542;2023-08-17T07:46:08;17.30;99.90
57108;DHT22;42987;52.916;6.542;2023-08-17T07:48:34;17.30;99.90
57108;DHT22;42987;52.916;6.542;2023-08-17T07:51:00;17.30;99.90
57108;DHT22;42987;52.916;6.542;2023-08-17T07:53:25;17.30;99.90
57108;DHT22;42987;52.916;6.542;2023-08-17T07:55:51;17.30;99.90
57108;DHT22;42987;52.916;6.542;2023-08-17T07:58:17;17.30;99.90
57108;DHT22;42987;52.916;6.542;2023-08-17T08:00:43;17.30;99.90
57108;DHT22;42987;52.916;6.542;2023-08-17T08:03:09;17.30;99.90
57108;DHT22;42987;52.916;6.542;2023-08-17T08:05:35;17.30;99.90
57108;DHT22;42987;52.916;6.542;2023-08-17T08:08:00;17.30;99.90
57108;DHT22;42987;52.916;6.542;2023-08-17T08:10:27;17.30;99.90
57108;DHT22;42987;52.916;6.542;2023-08-17T08:12:54;17.40;99.90
57108;DHT22;42987;52.916;6.542;2023-08-17T08:15:20;17.50;99.90
57108;DHT22;42987;52.916;6.542;2023-08-17T08:17:46;17.50;99.90
57108;DHT22;42987;52.916;6.542;2023-08-17T08:20:12;17.50;99.90
57108;DHT22;42987;52.916;6.542;2023-08-17T08:22:38;17.60;99.90
57108;DHT22;42987;52.916;6.542;2023-08-17T08:25:04;17.70;99.90
57108;DHT22;42987;52.916;6.542;2023-08-17T08:27:29;17.70;99.90
57108;DHT22;42987;52.916;6.542;2023-08-17T08:29:55;17.70;99.90
57108;DHT22;42987;52.916;6.542;2023-08-17T08:32:21;17.70;99.90
57108;DHT22;42987;52.916;6.542;2023-08-17T08:34:47;17.80;99.90
57108;DHT22;42987;52.916;6.542;2023-08-17T08:37:12;17.90;99.90
57108;DHT22;42987;52.916;6.542;2023-08-17T08:39:48;18.00;99.90
57108;DHT22;42987;52.916;6.542;2023-08-17T08:42:15;18.30;99.90
57108;DHT22;42987;52.916;6.542;2023-08-17T08:44:41;18.30;99.90
57108;DHT22;42987;52.916;6.542;2023-08-17T08:47:07;18.30;99.90
57108;DHT22;42987;52.916;6.542;2023-08-17T08:49:38;18.30;99.90
57108;DHT22;42987;52.916;6.542;2023-08-17T08:52:12;18.30;99.90
57108;DHT22;42987;52.916;6.542;2023-08-17T08:54:38;18.30;99.90
57108;DHT22;42987;52.916;6.542;2023-08-17T08:57:08;18.30;99.90
57108;DHT22;42987;52.916;6.542;2023-08-17T08:59:38;18.30;99.90
57108;DHT22;42987;52.916;6.542;2023-08-17T09:02:13;18.20;99.90
57108;DHT22;42987;52.916;6.542;2023-08-17T09:04:41;18.20;99.90
57108;DHT22;42987;52.916;6.542;2023-08-17T09:07:07;18.10;99.90
57108;DHT22;42987;52.916;6.542;2023-08-17T09:09:35;18.10;99.90
57108;DHT22;42987;52.916;6.542;2023-08-17T09:12:02;18.00;99.90
57108;DHT22;42987;52.916;6.542;2023-08-17T09:14:27;18.00;99.90
57108;DHT22;42987;52.916;6.542;2023-08-17T09:16:53;18.00;99.90
57108;DHT22;42987;52.916;6.542;2023-08-17T09:19:20;18.00;99.90
57108;DHT22;42987;52.916;6.542;2023-08-17T09:21:45;18.00;99.90
57108;DHT22;42987;52.916;6.542;2023-08-17T09:24:12;18.10;99.90
57108;DHT22;42987;52.916;6.542;2023-08-17T09:26:38;18.20;99.90
57108;DHT22;42987;52.916;6.542;2023-08-17T09:29:16;18.20;99.90
57108;DHT22;42987;52.916;6.542;2023-08-17T09:31:43;18.30;99.90
57108;DHT22;42987;52.916;6.542;2023-08-17T09:34:09;18.30;99.90
57108;DHT22;42987;52.916;6.542;2023-08-17T09:36:39;18.30;99.90
57108;DHT22;42987;52.916;6.542;2023-08-17T09:39:05;18.40;99.90
57108;DHT22;42987;52.916;6.542;2023-08-17T09:41:38;18.40;99.90
57108;DHT22;42987;52.916;6.542;2023-08-17T09:44:05;18.50;99.90
57108;DHT22;42987;52.916;6.542;2023-08-17T09:46:31;18.50;99.90
57108;DHT22;42987;52.916;6.542;2023-08-17T09:48:57;18.50;99.90
57108;DHT22;42987;52.916;6.542;2023-08-17T09:51:24;18.50;99.90
57108;DHT22;42987;52.916;6.542;2023-08-17T09:53:53;18.50;99.90
57108;DHT22;42987;52.916;6.542;2023-08-17T09:56:21;18.50;99.90
57108;DHT22;42987;52.916;6.542;2023-08-17T09:58:49;18.50;99.90
57108;DHT22;42987;52.916;6.542;2023-08-17T10:01:15;18.50;99.90
57108;DHT22;42987;52.916;6.542;2023-08-17T10:03:43;18.50;99.90
57108;DHT22;42987;52.916;6.542;2023-08-17T10:06:13;18.50;99.90
57108;DHT22;42987;52.916;6.542;2023-08-17T10:08:50;18.50;99.90
57108;DHT22;42987;52.916;6.542;2023-08-17T10:11:19;18.50;99.90
57108;DHT22;42987;52.916;6.542;2023-08-17T10:14:15;18.50;99.90
57108;DHT22;42987;52.916;6.542;2023-08-17T10:16:44;18.50;99.90
57108;DHT22;42987;52.916;6.542;2023-08-17T10:19:19;18.60;99.90
57108;DHT22;42987;52.916;6.542;2023-08-17T10:22:09;18.60;99.90
57108;DHT22;42987;52.916;6.542;2023-08-17T10:24:36;18.80;99.90
57108;DHT22;42987;52.916;6.542;2023-08-17T10:27:05;18.90;99.90
57108;DHT22;42987;52.916;6.542;2023-08-17T10:29:31;19.10;99.90
57108;DHT22;42987;52.916;6.542;2023-08-17T10:32:00;19.20;99.90
57108;DHT22;42987;52.916;6.542;2023-08-17T10:34:26;19.20;99.90
57108;DHT22;42987;52.916;6.542;2023-08-17T10:36:53;19.10;99.90
57108;DHT22;42987;52.916;6.542;2023-08-17T10:39:28;19.10;99.90
57108;DHT22;42987;52.916;6.542;2023-08-17T10:41:54;19.10;99.90
57108;DHT22;42987;52.916;6.542;2023-08-17T10:44:40;19.10;99.90
57108;DHT22;42987;52.916;6.542;2023-08-17T10:47:26;19.10;99.90
57108;DHT22;42987;52.916;6.542;2023-08-17T10:52:32;19.00;99.90
57108;DHT22;42987;52.916;6.542;2023-08-17T10:55:03;19.00;99.90
57108;DHT22;42987;52.916;6.542;2023-08-17T10:57:40;19.00;99.90
57108;DHT22;42987;52.916;6.542;2023-08-17T11:06:27;19.20;99.90
57108;DHT22;42987;52.916;6.542;2023-08-17T11:08:54;19.10;99.90
57108;DHT22;42987;52.916;6.542;2023-08-17T11:11:22;19.10;99.90
57108;DHT22;42987;52.916;6.542;2023-08-17T11:13:48;19.10;99.90
57108;DHT22;42987;52.916;6.542;2023-08-17T11:16:16;19.10;99.90
57108;DHT22;42987;52.916;6.542;2023-08-17T11:18:48;19.00;99.90
57108;DHT22;42987;52.916;6.542;2023-08-17T11:21:15;19.00;99.90
57108;DHT22;42987;52.916;6.542;2023-08-17T11:23:41;19.00;99.90
57108;DHT22;42987;52.916;6.542;2023-08-17T11:26:07;19.00;99.90
57108;DHT22;42987;52.916;6.542;2023-08-17T11:28:34;19.00;99.90
57108;DHT22;42987;52.916;6.542;2023-08-17T11:31:09;19.10;99.90
57108;DHT22;42987;52.916;6.542;2023-08-17T11:33:39;19.10;99.90
57108;DHT22;42987;52.916;6.542;2023-08-17T11:36:06;19.10;99.90
57108;DHT22;42987;52.916;6.542;2023-08-17T11:38:41;19.10;99.90
57108;DHT22;42987;52.916;6.542;2023-08-17T11:41:07;19.10;99.90
57108;DHT22;42987;52.916;6.542;2023-08-17T11:43:37;19.00;99.90
57108;DHT22;42987;52.916;6.542;2023-08-17T11:46:04;19.10;99.90
57108;DHT22;42987;52.916;6.542;2023-08-17T11:48:30;19.10;99.90
57108;DHT22;42987;52.916;6.542;2023-08-17T11:50:56;19.10;99.90
57108;DHT22;42987;52.916;6.542;2023-08-17T11:53:23;19.20;99.90
57108;DHT22;42987;52.916;6.542;2023-08-17T11:55:50;19.20;99.90
57108;DHT22;42987;52.916;6.542;2023-08-17T11:58:16;19.30;99.90
57108;DHT22;42987;52.916;6.542;2023-08-17T12:00:44;19.40;99.90
57108;DHT22;42987;52.916;6.542;2023-08-17T12:03:16;19.40;99.90
57108;DHT22;42987;52.916;6.542;2023-08-17T12:05:43;19.50;99.90
57108;DHT22;42987;52.916;6.542;2023-08-17T12:08:09;19.50;99.90
57108;DHT22;42987;52.916;6.542;2023-08-17T12:10:39;19.60;99.90
57108;DHT22;42987;52.916;6.542;2023-08-17T12:13:05;19.70;99.90
57108;DHT22;42987;52.916;6.542;2023-08-17T12:15:35;19.70;99.90
57108;DHT22;42987;52.916;6.542;2023-08-17T12:18:03;19.70;99.90
57108;DHT22;42987;52.916;6.542;2023-08-17T12:20:30;19.70;99.90
57108;DHT22;42987;52.916;6.542;2023-08-17T12:22:58;19.70;99.90
57108;DHT22;42987;52.916;6.542;2023-08-17T12:25:26;19.70;99.90
57108;DHT22;42987;52.916;6.542;2023-08-17T12:27:52;19.70;99.90
57108;DHT22;42987;52.916;6.542;2023-08-17T12:30:29;19.70;99.90
57108;DHT22;42987;52.916;6.542;2023-08-17T12:32:55;19.70;99.90
57108;DHT22;42987;52.916;6.542;2023-08-17T12:35:21;19.70;99.90
57108;DHT22;42987;52.916;6.542;2023-08-17T12:37:49;19.70;99.90
57108;DHT22;42987;52.916;6.542;2023-08-17T12:40:15;19.70;99.90
57108;DHT22;42987;52.916;6.542;2023-08-17T12:42:41;19.80;99.90
57108;DHT22;42987;52.916;6.542;2023-08-17T12:45:07;19.70;99.90
57108;DHT22;42987;52.916;6.542;2023-08-17T12:47:33;19.70;99.90
57108;DHT22;42987;52.916;6.542;2023-08-17T12:49:59;19.70;99.90
57108;DHT22;42987;52.916;6.542;2023-08-17T12:52:26;19.80;99.90
57108;DHT22;42987;52.916;6.542;2023-08-17T12:54:56;19.80;99.90
57108;DHT22;42987;52.916;6.542;2023-08-17T12:57:21;19.80;99.90
57108;DHT22;42987;52.916;6.542;2023-08-17T12:59:47;19.90;99.90
57108;DHT22;42987;52.916;6.542;2023-08-17T13:02:13;20.00;99.90
57108;DHT22;42987;52.916;6.542;2023-08-17T13:04:40;20.10;99.90
57108;DHT22;42987;52.916;6.542;2023-08-17T13:07:06;20.10;99.90
57108;DHT22;42987;52.916;6.542;2023-08-17T13:09:35;20.30;99.90
57108;DHT22;42987;52.916;6.542;2023-08-17T13:12:01;20.30;99.90
57108;DHT22;42987;52.916;6.542;2023-08-17T13:14:27;20.40;99.90
57108;DHT22;42987;52.916;6.542;2023-08-17T13:16:52;20.50;99.90
57108;DHT22;42987;52.916;6.542;2023-08-17T13:19:19;20.50;99.90
57108;DHT22;42987;52.916;6.542;2023-08-17T13:21:44;20.40;99.90
57108;DHT22;42987;52.916;6.542;2023-08-17T13:24:10;20.50;99.90
57108;DHT22;42987;52.916;6.542;2023-08-17T13:26:36;20.50;99.90
57108;DHT22;42987;52.916;6.542;2023-08-17T13:29:02;20.50;99.90
57108;DHT22;42987;52.916;6.542;2023-08-17T13:31:28;20.40;99.90
57108;DHT22;42987;52.916;6.542;2023-08-17T13:33:54;20.40;99.90
57108;DHT22;42987;52.916;6.542;2023-08-17T13:36:20;20.40;99.90
57108;DHT22;42987;52.916;6.542;2023-08-17T13:38:46;20.40;99.90
57108;DHT22;42987;52.916;6.542;2023-08-17T13:41:12;20.40;99.90
57108;DHT22;42987;52.916;6.542;2023-08-17T13:43:38;20.40;99.90
57108;DHT22;42987;52.916;6.542;2023-08-17T13:46:04;20.30;99.90
57108;DHT22;42987;52.916;6.542;2023-08-17T13:48:30;20.30;99.90
57108;DHT22;42987;52.916;6.542;2023-08-17T13:50:56;20.30;99.90
57108;DHT22;42987;52.916;6.542;2023-08-17T13:53:22;20.20;99.90
57108;DHT22;42987;52.916;6.542;2023-08-17T13:55:47;20.20;99.90
57108;DHT22;42987;52.916;6.542;2023-08-17T13:58:13;20.10;99.90
57108;DHT22;42987;52.916;6.542;2023-08-17T14:00:41;20.10;99.90
57108;DHT22;42987;52.916;6.542;2023-08-17T14:03:07;20.00;99.90
57108;DHT22;42987;52.916;6.542;2023-08-17T14:05:33;20.00;99.90
57108;DHT22;42987;52.916;6.542;2023-08-17T14:07:59;19.90;99.90
57108;DHT22;42987;52.916;6.542;2023-08-17T14:10:25;19.90;99.90
57108;DHT22;42987;52.916;6.542;2023-08-17T14:12:51;19.90;99.90
57108;DHT22;42987;52.916;6.542;2023-08-17T14:15:16;19.80;99.90
57108;DHT22;42987;52.916;6.542;2023-08-17T14:17:42;19.80;99.90
57108;DHT22;42987;52.916;6.542;2023-08-17T14:20:08;19.80;99.90
57108;DHT22;42987;52.916;6.542;2023-08-17T14:22:34;19.80;99.90
57108;DHT22;42987;52.916;6.542;2023-08-17T14:25:00;19.80;99.90
57108;DHT22;42987;52.916;6.542;2023-08-17T14:27:26;19.70;99.90
57108;DHT22;42987;52.916;6.542;2023-08-17T14:29:52;19.70;99.90
57108;DHT22;42987;52.916;6.542;2023-08-17T14:32:17;19.70;99.90
57108;DHT22;42987;52.916;6.542;2023-08-17T14:34:43;19.60;99.90
57108;DHT22;42987;52.916;6.542;2023-08-17T14:37:09;19.70;99.90
57108;DHT22;42987;52.916;6.542;2023-08-17T14:39:35;19.70;99.90
57108;DHT22;42987;52.916;6.542;2023-08-17T14:42:00;19.80;99.90
57108;DHT22;42987;52.916;6.542;2023-08-17T14:44:26;19.80;99.90
57108;DHT22;42987;52.916;6.542;2023-08-17T14:46:52;19.80;99.90
57108;DHT22;42987;52.916;6.542;2023-08-17T14:49:18;19.80;99.90
57108;DHT22;42987;52.916;6.542;2023-08-17T14:51:43;19.80;99.90
57108;DHT22;42987;52.916;6.542;2023-08-17T14:54:09;19.80;99.90
57108;DHT22;42987;52.916;6.542;2023-08-17T14:56:36;19.80;99.90
57108;DHT22;42987;52.916;6.542;2023-08-17T14:59:01;19.80;99.90
57108;DHT22;42987;52.916;6.542;2023-08-17T15:01:28;19.80;99.90
57108;DHT22;42987;52.916;6.542;2023-08-17T15:03:55;19.90;99.90
57108;DHT22;42987;52.916;6.542;2023-08-17T15:06:21;19.80;99.90
57108;DHT22;42987;52.916;6.542;2023-08-17T15:08:50;19.80;99.90
57108;DHT22;42987;52.916;6.542;2023-08-17T15:11:16;19.80;99.90
57108;DHT22;42987;52.916;6.542;2023-08-17T15:13:42;19.80;99.90
57108;DHT22;42987;52.916;6.542;2023-08-17T15:16:08;19.70;99.90
57108;DHT22;42987;52.916;6.542;2023-08-17T15:18:34;19.70;99.90
57108;DHT22;42987;52.916;6.542;2023-08-17T15:21:00;19.70;99.90
57108;DHT22;42987;52.916;6.542;2023-08-17T15:23:26;19.70;99.90
57108;DHT22;42987;52.916;6.542;2023-08-17T15:25:51;19.70;99.90
57108;DHT22;42987;52.916;6.542;2023-08-17T15:28:17;19.70;99.90
57108;DHT22;42987;52.916;6.542;2023-08-17T15:30:43;19.80;99.90
57108;DHT22;42987;52.916;6.542;2023-08-17T15:33:09;19.80;99.90
57108;DHT22;42987;52.916;6.542;2023-08-17T15:35:34;19.90;99.90
57108;DHT22;42987;52.916;6.542;2023-08-17T15:38:00;19.80;99.90